createdAt,value
2018-11-02T10:07:51.328Z,24.10
2018-11-02T10:10:20.505Z,23.73
2018-11-02T10:12:49.877Z,23.27
2018-11-02T10:15:19.535Z,22.13
2018-11-02T10:17:48.711Z,21.83
2018-11-02T10:20:17.999Z,21.03
2018-11-02T10:22:47.501Z,20.37
2018-11-02T10:25:16.758Z,20.87
2018-11-02T10:27:45.908Z,20.20
2018-11-02T10:30:15.662Z,18.53
2018-11-02T10:32:47.868Z,18.70
2018-11-02T10:35:17.307Z,18.30
2018-11-02T10:37:46.825Z,18.93
2018-11-02T10:40:17.462Z,18.10
2018-11-02T10:42:52.054Z,16.77
2018-11-02T10:45:22.331Z,16.93
2018-11-02T10:47:51.614Z,15.97
2018-11-02T10:50:21.722Z,16.67
2018-11-02T10:52:50.801Z,16.57
2018-11-02T10:55:19.905Z,15.93
2018-11-02T10:57:49.994Z,19.40
2018-11-02T11:00:24.609Z,19.97
2018-11-02T11:02:54.428Z,18.37
2018-11-02T11:05:23.452Z,18.77
2018-11-02T11:07:52.552Z,17.03
2018-11-02T11:10:22.614Z,16.47
2018-11-02T11:12:51.963Z,15.30
2018-11-02T11:15:21.263Z,16.27
2018-11-02T11:17:51.144Z,16.03
2018-11-02T11:20:20.285Z,16.07
2018-11-02T11:22:49.608Z,16.53
2018-11-02T11:25:19.268Z,17.03
2018-11-02T11:27:48.485Z,16.83
2018-11-02T11:30:19.017Z,15.30
2018-11-02T11:32:49.613Z,13.57
2018-11-02T11:35:19.637Z,14.97
2018-11-02T11:37:48.645Z,15.13
2018-11-02T11:40:19.405Z,12.13
2018-11-02T11:42:48.759Z,15.53
2018-11-02T11:45:18.887Z,15.67
2018-11-02T11:47:48.471Z,14.27
2018-11-02T11:50:21.618Z,15.57
2018-11-02T11:52:52.761Z,15.80
2018-11-02T11:55:21.968Z,16.37
2018-11-02T11:57:52.027Z,14.30
2018-11-02T12:00:23.280Z,14.07
2018-11-02T12:02:53.193Z,14.33
2018-11-02T12:05:23.318Z,14.40
2018-11-02T12:07:52.540Z,14.30
2018-11-02T12:10:24.157Z,13.40
2018-11-02T12:12:54.859Z,14.47
2018-11-02T12:15:25.469Z,14.70
2018-11-02T12:17:54.324Z,14.67
2018-11-02T12:20:31.439Z,14.27
2018-11-02T12:23:02.433Z,12.87
2018-11-02T12:25:31.928Z,12.93
2018-11-02T12:28:01.346Z,13.93
2018-11-02T12:30:30.650Z,12.97
2018-11-02T12:33:00.449Z,14.67
2018-11-02T12:35:29.746Z,13.45
2018-11-02T12:37:58.769Z,11.80
2018-11-02T12:40:28.366Z,13.87
2018-11-02T12:42:58.497Z,13.97
2018-11-02T12:45:29.550Z,13.67
2018-11-02T12:47:58.990Z,13.43
2018-11-02T12:50:29.136Z,13.70
2018-11-02T12:52:59.153Z,14.13
2018-11-02T12:55:30.059Z,13.70
2018-11-02T12:58:00.352Z,13.87
2018-11-02T13:00:29.839Z,12.53
2018-11-02T13:02:59.064Z,12.73
2018-11-02T13:05:28.545Z,13.13
2018-11-02T13:07:58.093Z,23.57
2018-11-02T13:10:27.394Z,61.47
2018-11-02T13:12:56.658Z,52.00
2018-11-02T13:15:26.102Z,43.30
2018-11-02T13:17:55.580Z,33.87
2018-11-02T13:20:24.882Z,34.93
2018-11-02T13:22:54.184Z,36.13
2018-11-02T13:25:23.842Z,32.70
2018-11-02T13:27:53.412Z,31.87
2018-11-02T13:30:22.648Z,29.87
2018-11-02T13:32:51.942Z,30.43
2018-11-02T13:35:21.189Z,28.03
2018-11-02T13:37:50.813Z,26.53
2018-11-02T13:40:20.346Z,24.30
2018-11-02T13:42:49.783Z,24.63
2018-11-02T13:45:19.293Z,22.67
2018-11-02T13:47:48.708Z,24.97
2018-11-02T13:50:17.790Z,23.30
2018-11-02T13:52:47.115Z,24.07
2018-11-02T13:55:16.511Z,24.43
2018-11-02T13:57:45.850Z,23.07
2018-11-02T14:00:17.201Z,22.53
2018-11-02T14:02:46.840Z,21.50
2018-11-02T14:05:16.910Z,21.60
2018-11-02T14:07:49.953Z,20.50
2018-11-02T14:10:20.580Z,20.77
2018-11-02T14:12:50.243Z,20.10
2018-11-02T14:15:20.684Z,20.53
2018-11-02T14:17:51.015Z,19.33
2018-11-02T14:20:21.340Z,17.27
2018-11-02T14:22:50.536Z,20.30
2018-11-02T14:25:19.801Z,21.03
2018-11-02T14:27:49.283Z,20.07
2018-11-02T14:30:19.521Z,19.23
2018-11-02T14:32:49.201Z,19.00
2018-11-02T14:35:18.596Z,20.17
2018-11-02T14:37:47.846Z,18.27
2018-11-02T14:40:17.485Z,19.13
2018-11-02T14:42:48.477Z,18.07
2018-11-02T14:45:17.920Z,19.77
2018-11-02T14:47:47.309Z,17.60
2018-11-02T14:50:16.550Z,16.57
2018-11-02T14:52:45.617Z,17.70
2018-11-02T14:55:14.922Z,17.80
2018-11-02T14:57:44.320Z,18.10
2018-11-02T15:00:13.538Z,16.80
2018-11-02T15:02:43.845Z,16.37
2018-11-02T15:05:14.256Z,16.17
2018-11-02T15:07:44.269Z,17.10
2018-11-02T15:10:13.688Z,16.63
2018-11-02T15:12:43.316Z,17.90
2018-11-02T15:15:12.399Z,16.57
2018-11-02T15:17:42.209Z,15.07
2018-11-02T15:20:13.502Z,16.13
2018-11-02T15:22:43.231Z,15.83
2018-11-02T15:25:12.382Z,16.40
2018-11-02T15:27:42.029Z,15.30
2018-11-02T15:30:13.606Z,16.17
2018-11-02T15:32:43.825Z,15.97
2018-11-02T15:35:15.565Z,16.47
2018-11-02T15:37:45.094Z,16.37
2018-11-02T15:40:14.687Z,15.43
2018-11-02T15:42:44.248Z,14.93
2018-11-02T15:45:15.006Z,15.70
2018-11-02T15:47:45.912Z,14.90
2018-11-02T15:50:15.224Z,15.43
2018-11-02T15:52:44.380Z,15.40
2018-11-02T15:55:13.614Z,14.83
2018-11-02T15:57:42.796Z,14.60
2018-11-02T16:00:16.064Z,15.37
2018-11-02T16:02:46.835Z,14.67
2018-11-02T16:05:15.975Z,14.70
2018-11-02T16:07:45.078Z,15.20
2018-11-02T16:10:14.469Z,15.37
2018-11-02T16:12:44.168Z,14.33
2018-11-02T16:15:13.683Z,14.77
2018-11-02T16:17:42.861Z,15.20
2018-11-02T16:20:13.474Z,14.43
2018-11-02T16:22:43.567Z,15.17
2018-11-02T16:25:13.208Z,15.53
2018-11-02T16:27:42.893Z,12.07
2018-11-02T16:30:12.752Z,13.90
2018-11-02T16:32:42.009Z,14.60
2018-11-02T16:35:11.591Z,14.77
2018-11-02T16:37:41.066Z,14.77
2018-11-02T16:40:12.561Z,15.07
2018-11-02T16:42:42.041Z,15.63
2018-11-02T16:45:12.581Z,15.13
2018-11-02T16:47:42.327Z,15.23
2018-11-02T16:50:12.675Z,14.80
2018-11-02T16:52:42.839Z,15.33
2018-11-02T16:55:12.077Z,13.63
2018-11-02T16:57:41.347Z,12.60
2018-11-02T17:00:15.833Z,12.87
2018-11-02T17:02:45.924Z,14.80
2018-11-02T17:05:15.341Z,14.00
2018-11-02T17:07:44.793Z,13.13
2018-11-02T17:10:14.786Z,13.83
2018-11-02T17:12:44.299Z,15.10
2018-11-02T17:15:14.178Z,14.30
2018-11-02T17:17:43.476Z,14.53
2018-11-02T17:20:14.901Z,14.43
2018-11-02T17:22:44.223Z,15.07
2018-11-02T17:25:13.871Z,13.47
2018-11-02T17:27:43.378Z,14.13
2018-11-02T17:30:15.647Z,12.23
2018-11-02T17:32:45.327Z,14.17
2018-11-02T17:35:14.912Z,14.57
2018-11-02T17:37:44.311Z,13.53
2018-11-02T17:40:14.866Z,14.17
2018-11-02T17:42:44.328Z,13.43
2018-11-02T17:45:18.437Z,14.97
2018-11-02T17:47:48.040Z,13.63
2018-11-02T17:50:17.746Z,13.97
2018-11-02T17:52:46.995Z,15.10
2018-11-02T17:55:16.392Z,14.67
2018-11-02T17:57:45.523Z,15.37
2018-11-02T18:00:15.215Z,18.62
2018-11-02T18:02:44.864Z,16.70
2018-11-02T18:05:14.099Z,16.67
2018-11-02T18:07:43.547Z,17.10
2018-11-02T18:10:13.570Z,16.57
2018-11-02T18:12:42.626Z,18.13
2018-11-02T18:15:12.717Z,16.00
2018-11-02T18:17:41.902Z,15.30
2018-11-02T18:20:13.355Z,17.27
2018-11-02T18:22:43.257Z,17.53
2018-11-02T18:25:12.733Z,17.50
2018-11-02T18:27:42.701Z,16.13
2018-11-02T18:30:12.503Z,14.60
2018-11-02T18:32:41.534Z,14.57
2018-11-02T18:35:11.323Z,19.05
2018-11-02T18:37:40.760Z,19.73
2018-11-02T18:40:11.459Z,17.73
2018-11-02T18:42:43.621Z,15.37
2018-11-02T18:45:13.941Z,18.83
2018-11-02T18:47:47.967Z,18.67
2018-11-02T18:50:18.992Z,16.93
2018-11-02T18:52:48.922Z,20.40
2018-11-02T18:55:18.456Z,23.03
2018-11-02T18:57:47.373Z,18.17
2018-11-02T19:00:16.943Z,20.27
2018-11-02T19:02:45.949Z,25.47
2018-11-02T19:05:17.367Z,37.63
2018-11-02T19:07:47.075Z,40.87
2018-11-02T19:10:15.976Z,44.83
2018-11-02T19:12:45.291Z,49.53
2018-11-02T19:15:16.864Z,49.40
2018-11-02T19:17:46.669Z,45.87
2018-11-02T19:20:15.986Z,41.00
2018-11-02T19:22:45.444Z,39.35
2018-11-02T19:25:15.573Z,36.30
2018-11-02T19:27:45.970Z,36.87
2018-11-02T19:30:16.903Z,35.10
2018-11-02T19:32:46.079Z,36.53
2018-11-02T19:35:15.795Z,36.40
2018-11-02T19:37:45.397Z,34.07
2018-11-02T19:40:15.435Z,33.90
2018-11-02T19:42:44.515Z,35.37
2018-11-02T19:45:14.461Z,31.73
2018-11-02T19:47:48.890Z,31.67
2018-11-02T19:50:19.265Z,30.87
2018-11-02T19:52:48.752Z,32.47
2018-11-02T19:55:17.870Z,28.73
2018-11-02T19:57:47.398Z,31.73
2018-11-02T20:00:17.349Z,34.20
2018-11-02T20:02:46.549Z,34.20
2018-11-02T20:05:18.493Z,33.08
2018-11-02T20:07:47.570Z,31.70
2018-11-02T20:10:17.830Z,34.57
2018-11-02T20:12:48.326Z,29.30
2018-11-02T20:15:18.027Z,35.45
2018-11-02T20:17:47.428Z,32.83
2018-11-02T20:20:22.056Z,33.30
2018-11-02T20:22:51.795Z,30.27
2018-11-02T20:25:21.024Z,29.87
2018-11-02T20:27:51.019Z,34.50
2018-11-02T20:30:21.672Z,29.37
2018-11-02T20:32:50.920Z,29.67
2018-11-02T20:35:20.230Z,29.97
2018-11-02T20:37:49.925Z,30.53
2018-11-02T20:40:19.785Z,30.37
2018-11-02T20:42:49.882Z,30.20
2018-11-02T20:45:19.626Z,28.47
2018-11-02T20:47:53.222Z,29.82
2018-11-02T20:50:22.372Z,29.95
2018-11-02T20:52:51.991Z,29.75
2018-11-02T20:55:21.946Z,30.17
2018-11-02T20:57:51.264Z,30.67
2018-11-02T21:00:22.588Z,31.07
2018-11-02T21:02:52.444Z,32.23
2018-11-02T21:05:22.031Z,28.10
2018-11-02T21:07:52.156Z,31.63
2018-11-02T21:10:22.085Z,33.63
2018-11-02T21:12:51.605Z,29.60
2018-11-02T21:15:22.186Z,30.65
2018-11-02T21:17:52.129Z,29.87
2018-11-02T21:20:22.622Z,31.33
2018-11-02T21:22:52.556Z,31.17
2018-11-02T21:25:23.484Z,30.68
2018-11-02T21:27:53.758Z,28.57
2018-11-02T21:30:25.197Z,27.52
2018-11-02T21:32:54.675Z,32.23
2018-11-02T21:35:24.668Z,31.20
2018-11-02T21:37:54.182Z,32.17
2018-11-02T21:40:25.119Z,33.70
2018-11-02T21:42:54.792Z,30.97
2018-11-02T21:45:24.901Z,31.65
2018-11-02T21:47:54.015Z,31.07
2018-11-02T21:50:23.862Z,33.40
2018-11-02T21:52:52.951Z,35.85
2018-11-02T21:55:22.369Z,30.27
2018-11-02T21:57:51.726Z,30.20
2018-11-02T22:00:22.206Z,34.97
2018-11-02T22:02:51.391Z,31.55
2018-11-02T22:05:20.552Z,28.20
2018-11-02T22:07:50.679Z,27.57
2018-11-02T22:10:20.315Z,33.77
2018-11-02T22:12:49.708Z,33.80
2018-11-02T22:15:21.372Z,33.27
2018-11-02T22:17:50.885Z,31.60
2018-11-02T22:20:20.010Z,30.27
2018-11-02T22:22:49.136Z,33.40
2018-11-02T22:25:18.471Z,32.37
2018-11-02T22:27:47.595Z,30.62
2018-11-02T22:30:17.604Z,28.40
2018-11-02T22:32:47.084Z,34.10
2018-11-02T22:35:16.422Z,30.27
2018-11-02T22:37:45.769Z,34.47
2018-11-02T22:40:16.217Z,27.10
2018-11-02T22:42:45.414Z,29.12
2018-11-02T22:45:15.211Z,29.70
2018-11-02T22:47:49.691Z,28.43
2018-11-02T22:50:19.957Z,27.87
2018-11-02T22:52:49.213Z,30.30
2018-11-02T22:55:18.584Z,30.13
2018-11-02T22:57:47.836Z,30.63
2018-11-02T23:00:18.028Z,31.10
2018-11-02T23:02:48.206Z,28.33
2018-11-02T23:05:17.591Z,28.73
2018-11-02T23:07:46.845Z,32.17
2018-11-02T23:10:16.266Z,31.10
2018-11-02T23:12:45.980Z,31.68
2018-11-02T23:15:15.288Z,30.23
2018-11-02T23:17:44.511Z,30.00
2018-11-02T23:20:14.840Z,28.40
2018-11-02T23:22:44.029Z,29.57
2018-11-02T23:25:13.820Z,30.32
2018-11-02T23:27:44.594Z,29.77
2018-11-02T23:30:14.012Z,30.33
2018-11-02T23:32:42.991Z,30.43
2018-11-02T23:35:12.221Z,27.83
2018-11-02T23:37:41.550Z,29.05
2018-11-02T23:40:12.085Z,29.63
2018-11-02T23:42:41.936Z,25.47
2018-11-02T23:45:11.893Z,29.23
2018-11-02T23:47:45.580Z,26.13
2018-11-02T23:50:14.752Z,27.97
2018-11-02T23:52:43.949Z,27.27
2018-11-02T23:55:13.315Z,27.60
2018-11-02T23:57:42.778Z,27.40
